sensor_id;sensor_type;location;lat;lon;timestamp;temperature;humidity
49489;SHT31;35382;51.484;11.476;2024-02-21T00:01:25;6.59;89.17
49489;SHT31;35382;51.484;11.476;2024-02-21T00:03:54;6.45;89.76
49489;SHT31;35382;51.484;11.476;2024-02-21T00:06:20;6.45;89.95
49489;SHT31;35382;51.484;11.476;2024-02-21T00:08:45;6.44;90.22
49489;SHT31;35382;51.484;11.476;2024-02-21T00:11:10;6.35;90.62
49489;SHT31;35382;51.484;11.476;2024-02-21T00:13:36;6.30;90.64
49489;SHT31;35382;51.484;11.476;2024-02-21T00:16:01;6.33;90.63
49489;SHT31;35382;51.484;11.476;2024-02-21T00:18:27;6.35;90.39
49489;SHT31;35382;51.484;11.476;2024-02-21T00:20:52;6.34;90.33
49489;SHT31;35382;51.484;11.476;2024-02-21T00:23:18;6.35;90.47
49489;SHT31;35382;51.484;11.476;2024-02-21T00:25:44;6.30;90.49
49489;SHT31;35382;51.484;11.476;2024-02-21T00:28:09;6.28;90.51
49489;SHT31;35382;51.484;11.476;2024-02-21T00:30:35;6.27;90.59
49489;SHT31;35382;51.484;11.476;2024-02-21T00:33:01;6.25;90.61
49489;SHT31;35382;51.484;11.476;2024-02-21T00:35:26;6.27;90.52
49489;SHT31;35382;51.484;11.476;2024-02-21T00:37:52;6.24;90.53
49489;SHT31;35382;51.484;11.476;2024-02-21T00:40:18;6.27;90.26
49489;SHT31;35382;51.484;11.476;2024-02-21T00:42:43;6.27;90.58
49489;SHT31;35382;51.484;11.476;2024-02-21T00:45:09;6.27;90.40
49489;SHT31;35382;51.484;11.476;2024-02-21T00:47:35;6.28;90.14
49489;SHT31;35382;51.484;11.476;2024-02-21T00:50:01;6.31;90.25
49489;SHT31;35382;51.484;11.476;2024-02-21T00:52:27;6.33;90.10
49489;SHT31;35382;51.484;11.476;2024-02-21T00:54:53;6.33;90.19
49489;SHT31;35382;51.484;11.476;2024-02-21T00:57:19;6.40;89.99
49489;SHT31;35382;51.484;11.476;2024-02-21T00:59:44;6.42;89.87
49489;SHT31;35382;51.484;11.476;2024-02-21T01:02:10;6.42;90.12
49489;SHT31;35382;51.484;11.476;2024-02-21T01:04:36;6.48;89.64
49489;SHT31;35382;51.484;11.476;2024-02-21T01:07:02;6.58;89.20
49489;SHT31;35382;51.484;11.476;2024-02-21T01:09:27;6.63;88.39
49489;SHT31;35382;51.484;11.476;2024-02-21T01:11:53;6.61;88.83
49489;SHT31;35382;51.484;11.476;2024-02-21T01:14:19;6.57;89.10
49489;SHT31;35382;51.484;11.476;2024-02-21T01:16:45;6.59;88.80
49489;SHT31;35382;51.484;11.476;2024-02-21T01:19:11;6.65;88.83
49489;SHT31;35382;51.484;11.476;2024-02-21T01:21:38;6.58;89.33
49489;SHT31;35382;51.484;11.476;2024-02-21T01:24:06;6.61;89.18
49489;SHT31;35382;51.484;11.476;2024-02-21T01:26:32;6.48;89.66
49489;SHT31;35382;51.484;11.476;2024-02-21T01:28:58;6.49;89.53
49489;SHT31;35382;51.484;11.476;2024-02-21T01:31:23;6.48;89.58
49489;SHT31;35382;51.484;11.476;2024-02-21T01:33:49;6.42;89.93
49489;SHT31;35382;51.484;11.476;2024-02-21T01:36:14;6.45;89.73
49489;SHT31;35382;51.484;11.476;2024-02-21T01:38:40;6.49;89.73
49489;SHT31;35382;51.484;11.476;2024-02-21T01:41:05;6.49;89.54
49489;SHT31;35382;51.484;11.476;2024-02-21T01:43:31;6.49;89.79
49489;SHT31;35382;51.484;11.476;2024-02-21T01:45:57;6.40;90.67
49489;SHT31;35382;51.484;11.476;2024-02-21T01:48:24;6.31;90.77
49489;SHT31;35382;51.484;11.476;2024-02-21T01:50:51;6.25;91.26
49489;SHT31;35382;51.484;11.476;2024-02-21T01:53:27;6.28;91.11
49489;SHT31;35382;51.484;11.476;2024-02-21T01:55:55;6.31;91.15
49489;SHT31;35382;51.484;11.476;2024-02-21T01:58:21;6.20;91.68
49489;SHT31;35382;51.484;11.476;2024-02-21T02:00:47;6.13;92.21
49489;SHT31;35382;51.484;11.476;2024-02-21T02:03:14;6.17;92.00
49489;SHT31;35382;51.484;11.476;2024-02-21T02:05:39;6.16;92.32
49489;SHT31;35382;51.484;11.476;2024-02-21T02:08:06;6.10;92.62
49489;SHT31;35382;51.484;11.476;2024-02-21T02:10:31;6.03;93.00
49489;SHT31;35382;51.484;11.476;2024-02-21T02:12:57;6.03;92.96
49489;SHT31;35382;51.484;11.476;2024-02-21T02:15:22;6.09;92.60
49489;SHT31;35382;51.484;11.476;2024-02-21T02:17:47;6.18;91.98
49489;SHT31;35382;51.484;11.476;2024-02-21T02:20:13;6.17;92.14
49489;SHT31;35382;51.484;11.476;2024-02-21T02:22:39;6.16;91.99
49489;SHT31;35382;51.484;11.476;2024-02-21T02:25:05;6.17;91.51
49489;SHT31;35382;51.484;11.476;2024-02-21T02:27:30;6.23;91.86
49489;SHT31;35382;51.484;11.476;2024-02-21T02:29:56;6.25;91.92
49489;SHT31;35382;51.484;11.476;2024-02-21T02:32:21;6.23;91.78
49489;SHT31;35382;51.484;11.476;2024-02-21T02:34:46;6.24;91.75
49489;SHT31;35382;51.484;11.476;2024-02-21T02:37:12;6.21;92.01
49489;SHT31;35382;51.484;11.476;2024-02-21T02:39:37;6.30;91.62
49489;SHT31;35382;51.484;11.476;2024-02-21T02:42:03;6.31;91.52
49489;SHT31;35382;51.484;11.476;2024-02-21T02:44:28;6.41;90.57
49489;SHT31;35382;51.484;11.476;2024-02-21T02:46:53;6.45;90.43
49489;SHT31;35382;51.484;11.476;2024-02-21T02:49:19;6.63;89.41
49489;SHT31;35382;51.484;11.476;2024-02-21T02:51:44;6.51;90.44
49489;SHT31;35382;51.484;11.476;2024-02-21T02:54:10;6.55;89.90
49489;SHT31;35382;51.484;11.476;2024-02-21T02:56:36;6.61;89.55
49489;SHT31;35382;51.484;11.476;2024-02-21T02:59:01;6.48;90.51
49489;SHT31;35382;51.484;11.476;2024-02-21T03:01:26;6.45;90.53
49489;SHT31;35382;51.484;11.476;2024-02-21T03:03:52;6.44;90.70
49489;SHT31;35382;51.484;11.476;2024-02-21T03:06:17;6.45;90.70
49489;SHT31;35382;51.484;11.476;2024-02-21T03:08:42;6.41;91.06
49489;SHT31;35382;51.484;11.476;2024-02-21T03:11:08;6.45;90.70
49489;SHT31;35382;51.484;11.476;2024-02-21T03:13:33;6.45;91.00
49489;SHT31;35382;51.484;11.476;2024-02-21T03:15:58;6.40;91.42
49489;SHT31;35382;51.484;11.476;2024-02-21T03:18:24;6.45;90.73
49489;SHT31;35382;51.484;11.476;2024-02-21T03:20:49;6.51;90.74
49489;SHT31;35382;51.484;11.476;2024-02-21T03:23:15;6.58;90.37
49489;SHT31;35382;51.484;11.476;2024-02-21T03:25:40;6.54;90.79
49489;SHT31;35382;51.484;11.476;2024-02-21T03:28:05;6.57;90.49
49489;SHT31;35382;51.484;11.476;2024-02-21T03:30:31;6.59;90.21
49489;SHT31;35382;51.484;11.476;2024-02-21T03:32:56;6.57;90.21
49489;SHT31;35382;51.484;11.476;2024-02-21T03:35:21;6.64;90.06
49489;SHT31;35382;51.484;11.476;2024-02-21T03:37:47;6.67;90.20
49489;SHT31;35382;51.484;11.476;2024-02-21T03:40:12;6.68;89.73
49489;SHT31;35382;51.484;11.476;2024-02-21T03:42:38;6.67;89.95
49489;SHT31;35382;51.484;11.476;2024-02-21T03:45:04;6.67;90.07
49489;SHT31;35382;51.484;11.476;2024-02-21T03:47:29;6.71;89.77
49489;SHT31;35382;51.484;11.476;2024-02-21T03:49:55;6.77;89.75
49489;SHT31;35382;51.484;11.476;2024-02-21T03:52:20;6.69;90.17
49489;SHT31;35382;51.484;11.476;2024-02-21T03:54:45;6.74;89.93
49489;SHT31;35382;51.484;11.476;2024-02-21T03:57:11;6.68;90.29
49489;SHT31;35382;51.484;11.476;2024-02-21T03:59:36;6.69;90.08
49489;SHT31;35382;51.484;11.476;2024-02-21T04:02:01;6.72;89.78
49489;SHT31;35382;51.484;11.476;2024-02-21T04:04:27;6.69;90.22
49489;SHT31;35382;51.484;11.476;2024-02-21T04:06:52;6.68;90.33
49489;SHT31;35382;51.484;11.476;2024-02-21T04:09:18;6.68;90.31
49489;SHT31;35382;51.484;11.476;2024-02-21T04:11:43;6.68;90.17
49489;SHT31;35382;51.484;11.476;2024-02-21T04:14:08;6.68;90.13
49489;SHT31;35382;51.484;11.476;2024-02-21T04:16:34;6.64;90.58
49489;SHT31;35382;51.484;11.476;2024-02-21T04:19:00;6.55;91.16
49489;SHT31;35382;51.484;11.476;2024-02-21T04:21:25;6.58;90.92
49489;SHT31;35382;51.484;11.476;2024-02-21T04:23:51;6.57;90.96
49489;SHT31;35382;51.484;11.476;2024-02-21T04:26:16;6.59;90.84
49489;SHT31;35382;51.484;11.476;2024-02-21T04:28:41;6.57;91.20
49489;SHT31;35382;51.484;11.476;2024-02-21T04:31:07;6.55;91.07
49489;SHT31;35382;51.484;11.476;2024-02-21T04:33:32;6.57;90.70
49489;SHT31;35382;51.484;11.476;2024-02-21T04:35:57;6.54;91.03
49489;SHT31;35382;51.484;11.476;2024-02-21T04:38:23;6.59;90.56
49489;SHT31;35382;51.484;11.476;2024-02-21T04:40:48;6.58;90.64
49489;SHT31;35382;51.484;11.476;2024-02-21T04:43:14;6.48;91.22
49489;SHT31;35382;51.484;11.476;2024-02-21T04:45:39;6.54;90.99
49489;SHT31;35382;51.484;11.476;2024-02-21T04:48:05;6.41;91.55
49489;SHT31;35382;51.484;11.476;2024-02-21T04:50:30;6.40;91.41
49489;SHT31;35382;51.484;11.476;2024-02-21T04:52:56;6.40;91.31
49489;SHT31;35382;51.484;11.476;2024-02-21T04:55:21;6.37;91.41
49489;SHT31;35382;51.484;11.476;2024-02-21T04:57:46;6.24;91.61
49489;SHT31;35382;51.484;11.476;2024-02-21T05:00:12;6.09;92.15
49489;SHT31;35382;51.484;11.476;2024-02-21T05:02:37;6.04;92.28
49489;SHT31;35382;51.484;11.476;2024-02-21T05:05:03;6.07;92.31
49489;SHT31;35382;51.484;11.476;2024-02-21T05:07:28;6.04;92.51
49489;SHT31;35382;51.484;11.476;2024-02-21T05:09:54;6.10;92.21
49489;SHT31;35382;51.484;11.476;2024-02-21T05:12:19;6.04;92.49
49489;SHT31;35382;51.484;11.476;2024-02-21T05:14:45;5.93;93.03
49489;SHT31;35382;51.484;11.476;2024-02-21T05:17:10;5.86;93.18
49489;SHT31;35382;51.484;11.476;2024-02-21T05:19:36;5.83;93.35
49489;SHT31;35382;51.484;11.476;2024-02-21T05:22:01;5.85;93.16
49489;SHT31;35382;51.484;11.476;2024-02-21T05:24:26;5.83;93.09
49489;SHT31;35382;51.484;11.476;2024-02-21T05:26:53;5.87;93.08
49489;SHT31;35382;51.484;11.476;2024-02-21T05:29:19;5.81;93.17
49489;SHT31;35382;51.484;11.476;2024-02-21T05:32:02;5.85;93.24
49489;SHT31;35382;51.484;11.476;2024-02-21T05:34:28;5.79;93.37
49489;SHT31;35382;51.484;11.476;2024-02-21T05:36:53;5.83;93.36
49489;SHT31;35382;51.484;11.476;2024-02-21T05:39:18;5.74;93.42
49489;SHT31;35382;51.484;11.476;2024-02-21T05:41:44;5.86;93.14
49489;SHT31;35382;51.484;11.476;2024-02-21T05:44:10;5.83;93.14
49489;SHT31;35382;51.484;11.476;2024-02-21T05:46:35;5.94;92.80
49489;SHT31;35382;51.484;11.476;2024-02-21T05:49:01;5.91;92.79
49489;SHT31;35382;51.484;11.476;2024-02-21T05:51:26;5.93;92.76
49489;SHT31;35382;51.484;11.476;2024-02-21T05:53:52;5.93;92.94
49489;SHT31;35382;51.484;11.476;2024-02-21T05:56:17;6.06;92.75
49489;SHT31;35382;51.484;11.476;2024-02-21T05:58:43;6.11;92.75
49489;SHT31;35382;51.484;11.476;2024-02-21T06:01:08;6.20;92.32
49489;SHT31;35382;51.484;11.476;2024-02-21T06:03:33;6.23;92.24
49489;SHT31;35382;51.484;11.476;2024-02-21T06:06:03;6.23;92.32
49489;SHT31;35382;51.484;11.476;2024-02-21T06:08:28;6.30;92.31
49489;SHT31;35382;51.484;11.476;2024-02-21T06:10:54;6.35;92.19
49489;SHT31;35382;51.484;11.476;2024-02-21T06:13:20;6.45;91.43
49489;SHT31;35382;51.484;11.476;2024-02-21T06:15:45;6.55;90.72
49489;SHT31;35382;51.484;11.476;2024-02-21T06:18:10;6.57;90.66
49489;SHT31;35382;51.484;11.476;2024-02-21T06:20:36;6.61;90.58
49489;SHT31;35382;51.484;11.476;2024-02-21T06:23:01;6.58;91.21
49489;SHT31;35382;51.484;11.476;2024-02-21T06:25:26;6.63;90.89
49489;SHT31;35382;51.484;11.476;2024-02-21T06:27:52;6.65;90.65
49489;SHT31;35382;51.484;11.476;2024-02-21T06:30:17;6.71;90.29
49489;SHT31;35382;51.484;11.476;2024-02-21T06:32:42;6.72;90.51
49489;SHT31;35382;51.484;11.476;2024-02-21T06:35:08;6.71;90.34
49489;SHT31;35382;51.484;11.476;2024-02-21T06:37:33;6.78;89.80
49489;SHT31;35382;51.484;11.476;2024-02-21T06:39:59;6.81;90.02
49489;SHT31;35382;51.484;11.476;2024-02-21T06:42:25;6.85;89.62
49489;SHT31;35382;51.484;11.476;2024-02-21T06:44:50;6.89;89.28
49489;SHT31;35382;51.484;11.476;2024-02-21T06:47:15;6.93;88.68
49489;SHT31;35382;51.484;11.476;2024-02-21T06:49:41;6.93;88.99
49489;SHT31;35382;51.484;11.476;2024-02-21T06:52:06;6.95;88.89
49489;SHT31;35382;51.484;11.476;2024-02-21T06:54:31;6.95;89.15
49489;SHT31;35382;51.484;11.476;2024-02-21T06:56:57;7.02;89.06
49489;SHT31;35382;51.484;11.476;2024-02-21T06:59:22;7.09;88.39
49489;SHT31;35382;51.484;11.476;2024-02-21T07:01:48;7.08;88.31
49489;SHT31;35382;51.484;11.476;2024-02-21T07:04:14;7.12;88.36
49489;SHT31;35382;51.484;11.476;2024-02-21T07:06:39;7.18;88.40
49489;SHT31;35382;51.484;11.476;2024-02-21T07:09:05;7.16;88.39
49489;SHT31;35382;51.484;11.476;2024-02-21T07:11:30;7.19;87.92
49489;SHT31;35382;51.484;11.476;2024-02-21T07:13:56;7.23;88.12
49489;SHT31;35382;51.484;11.476;2024-02-21T07:16:21;7.29;87.74
49489;SHT31;35382;51.484;11.476;2024-02-21T07:18:46;7.29;87.98
49489;SHT31;35382;51.484;11.476;2024-02-21T07:21:12;7.33;86.64
49489;SHT31;35382;51.484;11.476;2024-02-21T07:23:40;7.43;86.78
49489;SHT31;35382;51.484;11.476;2024-02-21T07:26:06;7.37;86.41
49489;SHT31;35382;51.484;11.476;2024-02-21T07:28:31;7.29;86.70
49489;SHT31;35382;51.484;11.476;2024-02-21T07:30:59;7.11;87.88
49489;SHT31;35382;51.484;11.476;2024-02-21T07:33:24;7.06;87.22
49489;SHT31;35382;51.484;11.476;2024-02-21T07:35:50;7.08;87.39
49489;SHT31;35382;51.484;11.476;2024-02-21T07:38:15;7.12;87.21
49489;SHT31;35382;51.484;11.476;2024-02-21T07:40:44;7.05;87.70
49489;SHT31;35382;51.484;11.476;2024-02-21T07:43:10;6.96;88.51
49489;SHT31;35382;51.484;11.476;2024-02-21T07:45:35;6.78;89.97
49489;SHT31;35382;51.484;11.476;2024-02-21T07:48:05;6.74;89.95
49489;SHT31;35382;51.484;11.476;2024-02-21T07:50:30;6.74;90.34
49489;SHT31;35382;51.484;11.476;2024-02-21T07:52:59;6.91;88.29
49489;SHT31;35382;51.484;11.476;2024-02-21T07:55:24;6.92;89.13
49489;SHT31;35382;51.484;11.476;2024-02-21T07:57:50;6.93;89.02
49489;SHT31;35382;51.484;11.476;2024-02-21T08:00:16;6.93;89.08
49489;SHT31;35382;51.484;11.476;2024-02-21T08:02:41;7.13;87.09
49489;SHT31;35382;51.484;11.476;2024-02-21T08:05:07;7.20;86.96
49489;SHT31;35382;51.484;11.476;2024-02-21T08:07:32;7.12;86.59
49489;SHT31;35382;51.484;11.476;2024-02-21T08:10:01;7.25;85.40
49489;SHT31;35382;51.484;11.476;2024-02-21T08:12:26;7.39;86.25
49489;SHT31;35382;51.484;11.476;2024-02-21T08:14:52;7.74;84.87
49489;SHT31;35382;51.484;11.476;2024-02-21T08:17:20;7.80;84.03
49489;SHT31;35382;51.484;11.476;2024-02-21T08:19:45;7.83;83.33
49489;SHT31;35382;51.484;11.476;2024-02-21T08:22:12;7.81;84.28
49489;SHT31;35382;51.484;11.476;2024-02-21T08:24:37;7.71;84.10
49489;SHT31;35382;51.484;11.476;2024-02-21T08:27:02;7.67;84.18
49489;SHT31;35382;51.484;11.476;2024-02-21T08:29:28;7.56;84.81
49489;SHT31;35382;51.484;11.476;2024-02-21T08:31:53;7.52;85.17
49489;SHT31;35382;51.484;11.476;2024-02-21T08:34:19;7.56;84.56
49489;SHT31;35382;51.484;11.476;2024-02-21T08:36:44;7.65;85.15
49489;SHT31;35382;51.484;11.476;2024-02-21T08:39:09;7.69;84.70
49489;SHT31;35382;51.484;11.476;2024-02-21T08:41:35;7.73;83.51
49489;SHT31;35382;51.484;11.476;2024-02-21T08:44:00;7.77;84.00
49489;SHT31;35382;51.484;11.476;2024-02-21T08:46:26;7.70;83.39
49489;SHT31;35382;51.484;11.476;2024-02-21T08:48:53;7.69;83.31
49489;SHT31;35382;51.484;11.476;2024-02-21T08:51:18;7.77;83.10
49489;SHT31;35382;51.484;11.476;2024-02-21T08:53:44;7.89;83.61
49489;SHT31;35382;51.484;11.476;2024-02-21T08:56:10;7.93;84.88
49489;SHT31;35382;51.484;11.476;2024-02-21T08:58:39;8.05;84.07
49489;SHT31;35382;51.484;11.476;2024-02-21T09:01:06;8.13;82.13
49489;SHT31;35382;51.484;11.476;2024-02-21T09:03:34;8.20;81.91
49489;SHT31;35382;51.484;11.476;2024-02-21T09:06:00;8.31;80.86
49489;SHT31;35382;51.484;11.476;2024-02-21T09:08:26;8.42;80.22
49489;SHT31;35382;51.484;11.476;2024-02-21T09:10:52;8.45;80.72
49489;SHT31;35382;51.484;11.476;2024-02-21T09:13:17;8.36;79.60
49489;SHT31;35382;51.484;11.476;2024-02-21T09:15:44;8.33;80.63
49489;SHT31;35382;51.484;11.476;2024-02-21T09:18:09;8.49;81.66
49489;SHT31;35382;51.484;11.476;2024-02-21T09:20:34;8.37;80.28
49489;SHT31;35382;51.484;11.476;2024-02-21T09:23:00;8.40;80.92
49489;SHT31;35382;51.484;11.476;2024-02-21T09:25:25;8.42;80.55
49489;SHT31;35382;51.484;11.476;2024-02-21T09:27:50;8.30;81.03
49489;SHT31;35382;51.484;11.476;2024-02-21T09:30:16;8.21;80.55
49489;SHT31;35382;51.484;11.476;2024-02-21T09:32:41;8.60;80.90
49489;SHT31;35382;51.484;11.476;2024-02-21T09:35:07;9.09;78.63
49489;SHT31;35382;51.484;11.476;2024-02-21T09:37:32;9.18;79.95
49489;SHT31;35382;51.484;11.476;2024-02-21T09:39:58;9.33;77.95
49489;SHT31;35382;51.484;11.476;2024-02-21T09:42:39;9.36;77.70
49489;SHT31;35382;51.484;11.476;2024-02-21T09:45:08;9.38;77.25
49489;SHT31;35382;51.484;11.476;2024-02-21T09:47:58;9.49;77.66
49489;SHT31;35382;51.484;11.476;2024-02-21T09:50:27;9.62;77.82
49489;SHT31;35382;51.484;11.476;2024-02-21T09:52:54;9.74;78.08
49489;SHT31;35382;51.484;11.476;2024-02-21T09:55:20;9.63;77.45
49489;SHT31;35382;51.484;11.476;2024-02-21T09:57:46;9.83;77.29
49489;SHT31;35382;51.484;11.476;2024-02-21T10:00:12;9.89;75.66
49489;SHT31;35382;51.484;11.476;2024-02-21T10:02:39;9.86;76.88
49489;SHT31;35382;51.484;11.476;2024-02-21T10:05:04;9.84;76.55
49489;SHT31;35382;51.484;11.476;2024-02-21T10:07:30;9.98;77.09
49489;SHT31;35382;51.484;11.476;2024-02-21T10:10:04;9.98;75.09
49489;SHT31;35382;51.484;11.476;2024-02-21T10:12:32;10.07;75.61
49489;SHT31;35382;51.484;11.476;2024-02-21T10:15:05;10.27;75.36
49489;SHT31;35382;51.484;11.476;2024-02-21T10:17:34;10.34;76.11
49489;SHT31;35382;51.484;11.476;2024-02-21T10:20:09;10.47;75.38
49489;SHT31;35382;51.484;11.476;2024-02-21T10:22:35;10.62;74.75
49489;SHT31;35382;51.484;11.476;2024-02-21T10:25:09;10.58;75.73
49489;SHT31;35382;51.484;11.476;2024-02-21T10:27:36;10.48;75.77
49489;SHT31;35382;51.484;11.476;2024-02-21T10:30:02;10.75;76.85
49489;SHT31;35382;51.484;11.476;2024-02-21T10:32:27;10.67;76.91
49489;SHT31;35382;51.484;11.476;2024-02-21T10:35:01;10.61;77.80
49489;SHT31;35382;51.484;11.476;2024-02-21T10:37:27;10.71;75.80
49489;SHT31;35382;51.484;11.476;2024-02-21T10:39:53;10.60;77.69
49489;SHT31;35382;51.484;11.476;2024-02-21T10:42:21;10.67;76.65
49489;SHT31;35382;51.484;11.476;2024-02-21T10:44:50;10.41;76.53
49489;SHT31;35382;51.484;11.476;2024-02-21T10:47:16;10.95;77.57
49489;SHT31;35382;51.484;11.476;2024-02-21T10:49:44;11.14;77.24
49489;SHT31;35382;51.484;11.476;2024-02-21T10:52:35;10.95;76.77
49489;SHT31;35382;51.484;11.476;2024-02-21T10:55:10;10.48;75.89
49489;SHT31;35382;51.484;11.476;2024-02-21T10:57:39;10.54;76.94
49489;SHT31;35382;51.484;11.476;2024-02-21T11:00:05;10.67;77.25
49489;SHT31;35382;51.484;11.476;2024-02-21T11:02:31;10.61;76.89
49489;SHT31;35382;51.484;11.476;2024-02-21T11:04:58;10.88;78.16
49489;SHT31;35382;51.484;11.476;2024-02-21T11:07:24;10.58;77.85
49489;SHT31;35382;51.484;11.476;2024-02-21T11:09:53;10.37;77.23
49489;SHT31;35382;51.484;11.476;2024-02-21T11:12:24;10.14;78.49
49489;SHT31;35382;51.484;11.476;2024-02-21T11:14:50;10.14;78.15
49489;SHT31;35382;51.484;11.476;2024-02-21T11:17:19;10.11;78.42
49489;SHT31;35382;51.484;11.476;2024-02-21T11:19:45;10.08;79.11
49489;SHT31;35382;51.484;11.476;2024-02-21T11:22:15;10.07;79.06
49489;SHT31;35382;51.484;11.476;2024-02-21T11:24:41;9.82;80.19
49489;SHT31;35382;51.484;11.476;2024-02-21T11:27:12;10.22;80.02
49489;SHT31;35382;51.484;11.476;2024-02-21T11:29:54;10.37;79.00
49489;SHT31;35382;51.484;11.476;2024-02-21T11:32:20;10.20;80.97
49489;SHT31;35382;51.484;11.476;2024-02-21T11:37:20;10.25;81.01
49489;SHT31;35382;51.484;11.476;2024-02-21T11:39:45;10.28;81.05
49489;SHT31;35382;51.484;11.476;2024-02-21T11:42:11;10.61;81.11
49489;SHT31;35382;51.484;11.476;2024-02-21T11:44:43;10.69;80.82
49489;SHT31;35382;51.484;11.476;2024-02-21T11:47:27;10.51;79.68
49489;SHT31;35382;51.484;11.476;2024-02-21T11:49:54;10.68;81.59
49489;SHT31;35382;51.484;11.476;2024-02-21T11:52:24;10.84;80.63
49489;SHT31;35382;51.484;11.476;2024-02-21T11:54:54;11.05;80.90
49489;SHT31;35382;51.484;11.476;2024-02-21T11:57:20;10.64;79.33
49489;SHT31;35382;51.484;11.476;2024-02-21T11:59:46;10.47;80.55
49489;SHT31;35382;51.484;11.476;2024-02-21T12:02:12;10.38;81.34
49489;SHT31;35382;51.484;11.476;2024-02-21T12:04:42;10.48;81.35
49489;SHT31;35382;51.484;11.476;2024-02-21T12:07:10;10.42;80.59
49489;SHT31;35382;51.484;11.476;2024-02-21T12:09:36;10.58;80.52
49489;SHT31;35382;51.484;11.476;2024-02-21T12:12:20;10.72;81.37
49489;SHT31;35382;51.484;11.476;2024-02-21T12:14:55;10.18;81.94
49489;SHT31;35382;51.484;11.476;2024-02-21T12:17:21;10.37;81.46
49489;SHT31;35382;51.484;11.476;2024-02-21T12:19:47;10.22;81.44
49489;SHT31;35382;51.484;11.476;2024-02-21T12:22:19;10.22;82.13
49489;SHT31;35382;51.484;11.476;2024-02-21T12:24:44;10.44;82.93
49489;SHT31;35382;51.484;11.476;2024-02-21T12:27:09;10.30;82.72
49489;SHT31;35382;51.484;11.476;2024-02-21T12:29:35;10.75;81.74
49489;SHT31;35382;51.484;11.476;2024-02-21T12:32:00;10.74;81.25
49489;SHT31;35382;51.484;11.476;2024-02-21T12:34:26;10.67;82.30
49489;SHT31;35382;51.484;11.476;2024-02-21T12:36:51;10.52;81.15
49489;SHT31;35382;51.484;11.476;2024-02-21T12:39:17;10.16;82.14
49489;SHT31;35382;51.484;11.476;2024-02-21T12:41:42;10.01;82.09
49489;SHT31;35382;51.484;11.476;2024-02-21T12:44:11;10.00;83.04
49489;SHT31;35382;51.484;11.476;2024-02-21T12:46:40;10.04;82.26
49489;SHT31;35382;51.484;11.476;2024-02-21T12:49:07;10.25;82.26
49489;SHT31;35382;51.484;11.476;2024-02-21T12:51:36;10.22;82.13
49489;SHT31;35382;51.484;11.476;2024-02-21T12:54:02;10.03;81.06
49489;SHT31;35382;51.484;11.476;2024-02-21T12:56:32;9.89;79.80
49489;SHT31;35382;51.484;11.476;2024-02-21T12:59:01;9.90;81.88
49489;SHT31;35382;51.484;11.476;2024-02-21T13:01:31;9.87;80.23
49489;SHT31;35382;51.484;11.476;2024-02-21T13:04:00;9.97;80.31
49489;SHT31;35382;51.484;11.476;2024-02-21T13:06:34;9.97;80.00
49489;SHT31;35382;51.484;11.476;2024-02-21T13:08:59;9.98;80.58
49489;SHT31;35382;51.484;11.476;2024-02-21T13:11:25;9.76;80.13
49489;SHT31;35382;51.484;11.476;2024-02-21T13:13:50;9.83;80.71
49489;SHT31;35382;51.484;11.476;2024-02-21T13:16:15;9.82;79.03
49489;SHT31;35382;51.484;11.476;2024-02-21T13:18:41;9.69;79.02
49489;SHT31;35382;51.484;11.476;2024-02-21T13:21:06;9.66;79.87
49489;SHT31;35382;51.484;11.476;2024-02-21T13:23:32;9.67;79.94
49489;SHT31;35382;51.484;11.476;2024-02-21T13:25:57;9.57;79.77
49489;SHT31;35382;51.484;11.476;2024-02-21T13:28:22;9.64;80.94
49489;SHT31;35382;51.484;11.476;2024-02-21T13:30:48;9.63;80.78
49489;SHT31;35382;51.484;11.476;2024-02-21T13:33:13;9.60;80.50
49489;SHT31;35382;51.484;11.476;2024-02-21T13:35:39;9.60;79.94
49489;SHT31;35382;51.484;11.476;2024-02-21T13:38:04;9.69;80.44
49489;SHT31;35382;51.484;11.476;2024-02-21T13:40:30;9.80;80.95
49489;SHT31;35382;51.484;11.476;2024-02-21T13:42:55;9.97;79.93
49489;SHT31;35382;51.484;11.476;2024-02-21T13:45:21;10.13;79.55
49489;SHT31;35382;51.484;11.476;2024-02-21T13:47:46;10.30;78.59
49489;SHT31;35382;51.484;11.476;2024-02-21T13:50:12;10.24;78.23
49489;SHT31;35382;51.484;11.476;2024-02-21T13:52:37;10.38;77.74
49489;SHT31;35382;51.484;11.476;2024-02-21T13:55:03;10.40;78.12
49489;SHT31;35382;51.484;11.476;2024-02-21T13:57:29;10.38;77.48
49489;SHT31;35382;51.484;11.476;2024-02-21T13:59:54;10.24;77.18
49489;SHT31;35382;51.484;11.476;2024-02-21T14:02:19;10.33;77.49
49489;SHT31;35382;51.484;11.476;2024-02-21T14:04:45;10.44;78.70
49489;SHT31;35382;51.484;11.476;2024-02-21T14:07:10;10.30;77.68
49489;SHT31;35382;51.484;11.476;2024-02-21T14:09:35;10.22;77.83
49489;SHT31;35382;51.484;11.476;2024-02-21T14:12:01;10.08;77.55
49489;SHT31;35382;51.484;11.476;2024-02-21T14:14:27;9.90;78.46
49489;SHT31;35382;51.484;11.476;2024-02-21T14:16:52;9.79;77.47
49489;SHT31;35382;51.484;11.476;2024-02-21T14:19:17;9.73;78.32
49489;SHT31;35382;51.484;11.476;2024-02-21T14:21:43;9.79;79.15
49489;SHT31;35382;51.484;11.476;2024-02-21T14:24:08;9.94;78.35
49489;SHT31;35382;51.484;11.476;2024-02-21T14:26:34;10.06;77.28
49489;SHT31;35382;51.484;11.476;2024-02-21T14:28:59;10.22;77.52
49489;SHT31;35382;51.484;11.476;2024-02-21T14:31:25;10.40;77.63
49489;SHT31;35382;51.484;11.476;2024-02-21T14:33:50;10.40;77.40
49489;SHT31;35382;51.484;11.476;2024-02-21T14:36:16;10.40;77.17
49489;SHT31;35382;51.484;11.476;2024-02-21T14:38:42;10.34;77.57
49489;SHT31;35382;51.484;11.476;2024-02-21T14:41:07;10.22;76.83
49489;SHT31;35382;51.484;11.476;2024-02-21T14:43:32;10.07;77.19
49489;SHT31;35382;51.484;11.476;2024-02-21T14:45:58;9.97;76.49
49489;SHT31;35382;51.484;11.476;2024-02-21T14:48:23;9.87;76.92
49489;SHT31;35382;51.484;11.476;2024-02-21T14:50:49;9.73;76.37
49489;SHT31;35382;51.484;11.476;2024-02-21T14:53:14;9.66;77.70
49489;SHT31;35382;51.484;11.476;2024-02-21T14:55:39;9.63;78.40
49489;SHT31;35382;51.484;11.476;2024-02-21T14:58:08;9.54;78.61
49489;SHT31;35382;51.484;11.476;2024-02-21T15:00:33;9.44;79.42
49489;SHT31;35382;51.484;11.476;2024-02-21T15:02:59;9.40;78.96
49489;SHT31;35382;51.484;11.476;2024-02-21T15:05:24;9.35;79.16
49489;SHT31;35382;51.484;11.476;2024-02-21T15:07:51;9.32;80.35
49489;SHT31;35382;51.484;11.476;2024-02-21T15:10:17;9.29;79.69
49489;SHT31;35382;51.484;11.476;2024-02-21T15:12:42;9.28;80.39
49489;SHT31;35382;51.484;11.476;2024-02-21T15:15:08;9.16;80.01
49489;SHT31;35382;51.484;11.476;2024-02-21T15:17:33;9.12;80.20
49489;SHT31;35382;51.484;11.476;2024-02-21T15:19:59;9.06;81.12
49489;SHT31;35382;51.484;11.476;2024-02-21T15:22:24;8.99;81.29
49489;SHT31;35382;51.484;11.476;2024-02-21T15:24:49;8.91;81.97